sensor_id;sensor_type;location;lat;lon;timestamp;temperature;humidity
22114;DHT22;11223;49.968;9.062;2022-07-21T00:01:45;20.70;99.90
22114;DHT22;11223;49.968;9.062;2022-07-21T00:04:11;20.70;99.90
22114;DHT22;11223;49.968;9.062;2022-07-21T00:06:36;20.70;99.90
22114;DHT22;11223;49.968;9.062;2022-07-21T00:09:02;20.70;99.90
22114;DHT22;11223;49.968;9.062;2022-07-21T00:11:28;20.70;99.90
22114;DHT22;11223;49.968;9.062;2022-07-21T00:13:53;20.70;99.90
22114;DHT22;11223;49.968;9.062;2022-07-21T00:16:19;20.70;99.90
22114;DHT22;11223;49.968;9.062;2022-07-21T00:18:45;20.60;99.90
22114;DHT22;11223;49.968;9.062;2022-07-21T00:21:10;20.60;99.90
22114;DHT22;11223;49.968;9.062;2022-07-21T00:23:36;20.60;99.90
22114;DHT22;11223;49.968;9.062;2022-07-21T00:26:02;20.50;99.90
22114;DHT22;11223;49.968;9.062;2022-07-21T00:28:28;20.50;99.90
22114;DHT22;11223;49.968;9.062;2022-07-21T00:30:53;20.60;99.90
22114;DHT22;11223;49.968;9.062;2022-07-21T00:33:19;20.60;99.90
22114;DHT22;11223;49.968;9.062;2022-07-21T00:35:44;20.60;99.90
22114;DHT22;11223;49.968;9.062;2022-07-21T00:38:10;20.50;99.90
22114;DHT22;11223;49.968;9.062;2022-07-21T00:40:35;20.50;99.90
22114;DHT22;11223;49.968;9.062;2022-07-21T00:43:01;20.50;99.90
22114;DHT22;11223;49.968;9.062;2022-07-21T00:45:27;20.50;99.90
22114;DHT22;11223;49.968;9.062;2022-07-21T00:47:52;20.50;99.90
22114;DHT22;11223;49.968;9.062;2022-07-21T00:50:19;20.50;99.90
22114;DHT22;11223;49.968;9.062;2022-07-21T00:52:46;20.50;99.90
22114;DHT22;11223;49.968;9.062;2022-07-21T00:55:15;20.50;99.90
22114;DHT22;11223;49.968;9.062;2022-07-21T00:57:42;20.50;99.90
22114;DHT22;11223;49.968;9.062;2022-07-21T01:00:11;20.50;99.90
22114;DHT22;11223;49.968;9.062;2022-07-21T01:02:37;20.50;99.90
22114;DHT22;11223;49.968;9.062;2022-07-21T01:05:05;20.40;99.90
22114;DHT22;11223;49.968;9.062;2022-07-21T01:07:31;20.40;99.90
22114;DHT22;11223;49.968;9.062;2022-07-21T01:09:57;20.40;99.90
22114;DHT22;11223;49.968;9.062;2022-07-21T01:12:23;20.40;99.90
22114;DHT22;11223;49.968;9.062;2022-07-21T01:14:49;20.40;99.90
22114;DHT22;11223;49.968;9.062;2022-07-21T01:17:15;20.30;99.90
22114;DHT22;11223;49.968;9.062;2022-07-21T01:19:41;20.30;99.90
22114;DHT22;11223;49.968;9.062;2022-07-21T01:22:06;20.30;99.90
22114;DHT22;11223;49.968;9.062;2022-07-21T01:24:32;20.30;99.90
22114;DHT22;11223;49.968;9.062;2022-07-21T01:26:58;20.30;99.90
22114;DHT22;11223;49.968;9.062;2022-07-21T01:29:23;20.30;99.90
22114;DHT22;11223;49.968;9.062;2022-07-21T01:31:49;20.40;99.90
22114;DHT22;11223;49.968;9.062;2022-07-21T01:34:16;20.30;99.90
22114;DHT22;11223;49.968;9.062;2022-07-21T01:36:43;20.30;99.90
22114;DHT22;11223;49.968;9.062;2022-07-21T01:39:09;20.30;99.90
22114;DHT22;11223;49.968;9.062;2022-07-21T01:41:53;20.40;99.90
22114;DHT22;11223;49.968;9.062;2022-07-21T01:44:19;20.40;99.90
22114;DHT22;11223;49.968;9.062;2022-07-21T01:46:47;20.30;99.90
22114;DHT22;11223;49.968;9.062;2022-07-21T01:49:15;20.30;99.90
22114;DHT22;11223;49.968;9.062;2022-07-21T01:51:41;20.20;99.90
22114;DHT22;11223;49.968;9.062;2022-07-21T01:54:09;20.10;99.90
22114;DHT22;11223;49.968;9.062;2022-07-21T01:56:36;20.10;99.90
22114;DHT22;11223;49.968;9.062;2022-07-21T01:59:02;20.10;99.90
22114;DHT22;11223;49.968;9.062;2022-07-21T02:01:29;20.10;99.90
22114;DHT22;11223;49.968;9.062;2022-07-21T02:03:57;20.00;99.90
22114;DHT22;11223;49.968;9.062;2022-07-21T02:06:23;20.00;99.90
22114;DHT22;11223;49.968;9.062;2022-07-21T02:08:49;19.90;99.90
22114;DHT22;11223;49.968;9.062;2022-07-21T02:11:16;19.80;99.90
22114;DHT22;11223;49.968;9.062;2022-07-21T02:13:42;19.80;99.90
22114;DHT22;11223;49.968;9.062;2022-07-21T02:16:08;19.80;99.90
22114;DHT22;11223;49.968;9.062;2022-07-21T02:18:34;19.80;99.90
22114;DHT22;11223;49.968;9.062;2022-07-21T02:21:00;19.70;99.90
22114;DHT22;11223;49.968;9.062;2022-07-21T02:23:26;19.70;99.90
22114;DHT22;11223;49.968;9.062;2022-07-21T02:25:52;19.70;99.90
22114;DHT22;11223;49.968;9.062;2022-07-21T02:28:19;19.70;99.90
22114;DHT22;11223;49.968;9.062;2022-07-21T02:30:45;19.70;99.90
22114;DHT22;11223;49.968;9.062;2022-07-21T02:33:11;19.70;99.90
22114;DHT22;11223;49.968;9.062;2022-07-21T02:35:37;19.60;99.90
22114;DHT22;11223;49.968;9.062;2022-07-21T02:38:04;19.50;99.90
22114;DHT22;11223;49.968;9.062;2022-07-21T02:40:30;19.50;99.90
22114;DHT22;11223;49.968;9.062;2022-07-21T02:42:56;19.50;99.90
22114;DHT22;11223;49.968;9.062;2022-07-21T02:45:22;19.50;99.90
22114;DHT22;11223;49.968;9.062;2022-07-21T02:47:55;19.50;99.90
22114;DHT22;11223;49.968;9.062;2022-07-21T02:50:23;19.40;99.90
22114;DHT22;11223;49.968;9.062;2022-07-21T02:52:49;19.40;99.90
22114;DHT22;11223;49.968;9.062;2022-07-21T02:55:15;19.40;99.90
22114;DHT22;11223;49.968;9.062;2022-07-21T02:57:40;19.40;99.90
22114;DHT22;11223;49.968;9.062;2022-07-21T03:00:08;19.50;99.90
22114;DHT22;11223;49.968;9.062;2022-07-21T03:02:35;19.50;99.90
22114;DHT22;11223;49.968;9.062;2022-07-21T03:05:00;19.50;99.90
22114;DHT22;11223;49.968;9.062;2022-07-21T03:07:26;19.60;99.90
22114;DHT22;11223;49.968;9.062;2022-07-21T03:09:52;19.60;99.90
22114;DHT22;11223;49.968;9.062;2022-07-21T03:12:17;19.60;99.90
22114;DHT22;11223;49.968;9.062;2022-07-21T03:14:43;19.60;99.90
22114;DHT22;11223;49.968;9.062;2022-07-21T03:17:09;19.60;99.90
22114;DHT22;11223;49.968;9.062;2022-07-21T03:19:34;19.60;99.90
22114;DHT22;11223;49.968;9.062;2022-07-21T03:22:00;19.60;99.90
22114;DHT22;11223;49.968;9.062;2022-07-21T03:24:26;19.60;99.90
22114;DHT22;11223;49.968;9.062;2022-07-21T03:26:51;19.60;99.90
22114;DHT22;11223;49.968;9.062;2022-07-21T03:29:17;19.60;99.90
22114;DHT22;11223;49.968;9.062;2022-07-21T03:31:42;19.70;99.90
22114;DHT22;11223;49.968;9.062;2022-07-21T03:34:08;19.70;99.90
22114;DHT22;11223;49.968;9.062;2022-07-21T03:36:34;19.70;99.90
22114;DHT22;11223;49.968;9.062;2022-07-21T03:38:59;19.70;99.90
22114;DHT22;11223;49.968;9.062;2022-07-21T03:41:25;19.60;99.90
22114;DHT22;11223;49.968;9.062;2022-07-21T03:43:51;19.60;99.90
22114;DHT22;11223;49.968;9.062;2022-07-21T03:46:16;19.60;99.90
22114;DHT22;11223;49.968;9.062;2022-07-21T03:48:42;19.60;99.90
22114;DHT22;11223;49.968;9.062;2022-07-21T03:51:07;19.60;99.90
22114;DHT22;11223;49.968;9.062;2022-07-21T03:53:34;19.60;99.90
22114;DHT22;11223;49.968;9.062;2022-07-21T03:56:00;19.50;99.90
22114;DHT22;11223;49.968;9.062;2022-07-21T03:58:26;19.60;99.90
22114;DHT22;11223;49.968;9.062;2022-07-21T04:00:52;19.50;99.90
22114;DHT22;11223;49.968;9.062;2022-07-21T04:03:17;19.50;99.90
22114;DHT22;11223;49.968;9.062;2022-07-21T04:05:43;19.40;99.90
22114;DHT22;11223;49.968;9.062;2022-07-21T04:08:10;19.50;99.90
22114;DHT22;11223;49.968;9.062;2022-07-21T04:10:37;19.40;99.90
22114;DHT22;11223;49.968;9.062;2022-07-21T04:13:06;19.50;99.90
22114;DHT22;11223;49.968;9.062;2022-07-21T04:15:33;19.40;99.90
22114;DHT22;11223;49.968;9.062;2022-07-21T04:17:58;19.40;99.90
22114;DHT22;11223;49.968;9.062;2022-07-21T04:20:24;19.40;99.90
22114;DHT22;11223;49.968;9.062;2022-07-21T04:22:50;19.40;99.90
22114;DHT22;11223;49.968;9.062;2022-07-21T04:25:17;19.40;99.90
22114;DHT22;11223;49.968;9.062;2022-07-21T04:27:44;19.50;99.90
22114;DHT22;11223;49.968;9.062;2022-07-21T04:30:12;19.50;99.90
22114;DHT22;11223;49.968;9.062;2022-07-21T04:32:38;19.50;99.90
22114;DHT22;11223;49.968;9.062;2022-07-21T04:35:05;19.50;99.90
22114;DHT22;11223;49.968;9.062;2022-07-21T04:37:31;19.50;99.90
22114;DHT22;11223;49.968;9.062;2022-07-21T04:39:57;19.40;99.90
22114;DHT22;11223;49.968;9.062;2022-07-21T04:42:22;19.40;99.90
22114;DHT22;11223;49.968;9.062;2022-07-21T04:44:48;19.40;99.90
22114;DHT22;11223;49.968;9.062;2022-07-21T04:47:14;19.40;99.90
22114;DHT22;11223;49.968;9.062;2022-07-21T04:49:40;19.50;99.90
22114;DHT22;11223;49.968;9.062;2022-07-21T04:52:05;19.40;99.90
22114;DHT22;11223;49.968;9.062;2022-07-21T04:54:31;19.50;99.90
22114;DHT22;11223;49.968;9.062;2022-07-21T04:56:56;19.50;99.90
22114;DHT22;11223;49.968;9.062;2022-07-21T04:59:22;19.50;99.90
22114;DHT22;11223;49.968;9.062;2022-07-21T05:01:48;19.50;99.90
22114;DHT22;11223;49.968;9.062;2022-07-21T05:04:13;19.50;99.90
22114;DHT22;11223;49.968;9.062;2022-07-21T05:06:39;19.40;99.90
22114;DHT22;11223;49.968;9.062;2022-07-21T05:09:04;19.50;99.90
22114;DHT22;11223;49.968;9.062;2022-07-21T05:11:30;19.40;99.90
22114;DHT22;11223;49.968;9.062;2022-07-21T05:13:56;19.40;99.90
22114;DHT22;11223;49.968;9.062;2022-07-21T05:16:22;19.40;99.90
22114;DHT22;11223;49.968;9.062;2022-07-21T05:18:48;19.40;99.90
22114;DHT22;11223;49.968;9.062;2022-07-21T05:21:13;19.40;99.90
22114;DHT22;11223;49.968;9.062;2022-07-21T05:23:39;19.40;99.90
22114;DHT22;11223;49.968;9.062;2022-07-21T05:26:05;19.50;99.90
22114;DHT22;11223;49.968;9.062;2022-07-21T05:28:30;19.50;99.90
22114;DHT22;11223;49.968;9.062;2022-07-21T05:30:56;19.50;99.90
22114;DHT22;11223;49.968;9.062;2022-07-21T05:33:22;19.60;99.90
22114;DHT22;11223;49.968;9.062;2022-07-21T05:35:47;19.60;99.90
22114;DHT22;11223;49.968;9.062;2022-07-21T05:38:13;19.70;99.90
22114;DHT22;11223;49.968;9.062;2022-07-21T05:40:39;19.70;99.90
22114;DHT22;11223;49.968;9.062;2022-07-21T05:43:05;19.60;99.90
22114;DHT22;11223;49.968;9.062;2022-07-21T05:45:30;19.60;99.90
22114;DHT22;11223;49.968;9.062;2022-07-21T05:47:56;19.50;99.90
22114;DHT22;11223;49.968;9.062;2022-07-21T05:50:21;19.40;99.90
22114;DHT22;11223;49.968;9.062;2022-07-21T05:52:47;19.40;99.90
22114;DHT22;11223;49.968;9.062;2022-07-21T05:55:12;19.50;99.90
22114;DHT22;11223;49.968;9.062;2022-07-21T05:57:39;19.60;99.90
22114;DHT22;11223;49.968;9.062;2022-07-21T06:00:05;19.70;99.90
22114;DHT22;11223;49.968;9.062;2022-07-21T06:02:31;19.80;99.90
22114;DHT22;11223;49.968;9.062;2022-07-21T06:04:58;19.80;99.90
22114;DHT22;11223;49.968;9.062;2022-07-21T06:07:25;20.00;99.90
22114;DHT22;11223;49.968;9.062;2022-07-21T06:09:50;20.00;99.90
22114;DHT22;11223;49.968;9.062;2022-07-21T06:12:16;20.10;99.90
22114;DHT22;11223;49.968;9.062;2022-07-21T06:14:42;20.10;99.90
22114;DHT22;11223;49.968;9.062;2022-07-21T06:17:07;20.20;99.90
22114;DHT22;11223;49.968;9.062;2022-07-21T06:19:33;20.20;99.90
22114;DHT22;11223;49.968;9.062;2022-07-21T06:21:58;20.10;99.90
22114;DHT22;11223;49.968;9.062;2022-07-21T06:24:25;20.10;99.90
22114;DHT22;11223;49.968;9.062;2022-07-21T06:26:52;20.10;99.90
22114;DHT22;11223;49.968;9.062;2022-07-21T06:29:18;20.20;99.90
22114;DHT22;11223;49.968;9.062;2022-07-21T06:31:43;20.30;99.90
22114;DHT22;11223;49.968;9.062;2022-07-21T06:34:09;20.30;99.90
22114;DHT22;11223;49.968;9.062;2022-07-21T06:36:35;20.20;99.90
22114;DHT22;11223;49.968;9.062;2022-07-21T06:39:01;20.20;99.90
22114;DHT22;11223;49.968;9.062;2022-07-21T06:41:26;20.30;99.90
22114;DHT22;11223;49.968;9.062;2022-07-21T06:43:52;20.50;99.90
22114;DHT22;11223;49.968;9.062;2022-07-21T06:46:17;20.60;99.90
22114;DHT22;11223;49.968;9.062;2022-07-21T06:48:43;20.80;99.90
22114;DHT22;11223;49.968;9.062;2022-07-21T06:51:09;21.00;99.90
22114;DHT22;11223;49.968;9.062;2022-07-21T06:53:34;21.20;99.90
22114;DHT22;11223;49.968;9.062;2022-07-21T06:56:00;21.20;99.90
22114;DHT22;11223;49.968;9.062;2022-07-21T06:58:25;21.20;99.90
22114;DHT22;11223;49.968;9.062;2022-07-21T07:00:52;21.10;99.90
22114;DHT22;11223;49.968;9.062;2022-07-21T07:03:18;21.00;99.90
22114;DHT22;11223;49.968;9.062;2022-07-21T07:05:45;21.00;99.90
22114;DHT22;11223;49.968;9.062;2022-07-21T07:08:11;21.00;99.90
22114;DHT22;11223;49.968;9.062;2022-07-21T07:10:37;21.00;99.90
22114;DHT22;11223;49.968;9.062;2022-07-21T07:13:03;21.00;99.90
22114;DHT22;11223;49.968;9.062;2022-07-21T07:15:29;21.00;99.90
22114;DHT22;11223;49.968;9.062;2022-07-21T07:17:56;21.00;99.90
22114;DHT22;11223;49.968;9.062;2022-07-21T07:20:23;20.90;99.90
22114;DHT22;11223;49.968;9.062;2022-07-21T07:22:49;20.90;99.90
22114;DHT22;11223;49.968;9.062;2022-07-21T07:25:15;20.90;99.90
22114;DHT22;11223;49.968;9.062;2022-07-21T07:27:42;20.90;99.90
22114;DHT22;11223;49.968;9.062;2022-07-21T07:30:09;20.90;99.90
22114;DHT22;11223;49.968;9.062;2022-07-21T07:32:35;21.00;99.90
22114;DHT22;11223;49.968;9.062;2022-07-21T07:35:00;21.00;99.90
22114;DHT22;11223;49.968;9.062;2022-07-21T07:37:26;21.00;99.90
22114;DHT22;11223;49.968;9.062;2022-07-21T07:39:51;21.00;99.90
22114;DHT22;11223;49.968;9.062;2022-07-21T07:42:17;21.00;99.90
22114;DHT22;11223;49.968;9.062;2022-07-21T07:44:42;21.00;99.90
22114;DHT22;11223;49.968;9.062;2022-07-21T07:47:09;20.90;99.90
22114;DHT22;11223;49.968;9.062;2022-07-21T07:49:34;20.70;99.90
22114;DHT22;11223;49.968;9.062;2022-07-21T07:52:00;20.70;99.90
22114;DHT22;11223;49.968;9.062;2022-07-21T07:54:28;20.60;99.90
22114;DHT22;11223;49.968;9.062;2022-07-21T07:56:53;20.60;99.90
22114;DHT22;11223;49.968;9.062;2022-07-21T07:59:19;20.60;99.90
22114;DHT22;11223;49.968;9.062;2022-07-21T08:01:45;20.60;99.90
22114;DHT22;11223;49.968;9.062;2022-07-21T08:04:10;20.80;99.90
22114;DHT22;11223;49.968;9.062;2022-07-21T08:06:36;21.10;99.90
22114;DHT22;11223;49.968;9.062;2022-07-21T08:09:02;21.50;99.90
22114;DHT22;11223;49.968;9.062;2022-07-21T08:11:28;21.90;99.90
22114;DHT22;11223;49.968;9.062;2022-07-21T08:13:53;22.20;99.90
22114;DHT22;11223;49.968;9.062;2022-07-21T08:16:19;22.50;99.90
22114;DHT22;11223;49.968;9.062;2022-07-21T08:18:44;22.70;99.90
22114;DHT22;11223;49.968;9.062;2022-07-21T08:21:10;22.80;99.90
22114;DHT22;11223;49.968;9.062;2022-07-21T08:23:36;22.90;99.90
22114;DHT22;11223;49.968;9.062;2022-07-21T08:26:03;22.90;99.90
22114;DHT22;11223;49.968;9.062;2022-07-21T08:28:28;22.70;99.90
22114;DHT22;11223;49.968;9.062;2022-07-21T08:30:54;22.70;99.90
22114;DHT22;11223;49.968;9.062;2022-07-21T08:33:20;22.50;99.90
22114;DHT22;11223;49.968;9.062;2022-07-21T08:35:45;22.20;99.90
22114;DHT22;11223;49.968;9.062;2022-07-21T08:38:11;22.00;99.90
22114;DHT22;11223;49.968;9.062;2022-07-21T08:40:40;21.80;99.90
22114;DHT22;11223;49.968;9.062;2022-07-21T08:43:06;21.80;99.90
22114;DHT22;11223;49.968;9.062;2022-07-21T08:45:34;21.90;99.90
22114;DHT22;11223;49.968;9.062;2022-07-21T08:48:00;22.00;99.90
22114;DHT22;11223;49.968;9.062;2022-07-21T08:50:29;22.20;99.90
22114;DHT22;11223;49.968;9.062;2022-07-21T08:52:55;22.40;99.90
22114;DHT22;11223;49.968;9.062;2022-07-21T08:55:21;22.70;99.90
22114;DHT22;11223;49.968;9.062;2022-07-21T08:57:47;23.00;99.90
22114;DHT22;11223;49.968;9.062;2022-07-21T09:00:12;23.10;99.90
22114;DHT22;11223;49.968;9.062;2022-07-21T09:02:38;23.00;99.90
22114;DHT22;11223;49.968;9.062;2022-07-21T09:05:07;22.80;99.90
22114;DHT22;11223;49.968;9.062;2022-07-21T09:07:54;22.60;99.90
22114;DHT22;11223;49.968;9.062;2022-07-21T09:10:28;22.20;99.90
22114;DHT22;11223;49.968;9.062;2022-07-21T09:12:59;21.90;99.90
22114;DHT22;11223;49.968;9.062;2022-07-21T09:15:26;21.70;99.90
22114;DHT22;11223;49.968;9.062;2022-07-21T09:20:34;21.20;99.90
22114;DHT22;11223;49.968;9.062;2022-07-21T09:23:10;21.10;99.90
22114;DHT22;11223;49.968;9.062;2022-07-21T09:25:42;21.00;99.90
22114;DHT22;11223;49.968;9.062;2022-07-21T09:31:11;20.90;99.90
22114;DHT22;11223;49.968;9.062;2022-07-21T09:33:45;20.90;99.90
22114;DHT22;11223;49.968;9.062;2022-07-21T09:36:17;21.00;99.90
22114;DHT22;11223;49.968;9.062;2022-07-21T09:43:50;20.90;99.90
22114;DHT22;11223;49.968;9.062;2022-07-21T09:46:24;20.80;99.90
22114;DHT22;11223;49.968;9.062;2022-07-21T09:48:52;20.70;99.90
22114;DHT22;11223;49.968;9.062;2022-07-21T09:51:32;20.80;99.90
22114;DHT22;11223;49.968;9.062;2022-07-21T09:54:06;20.80;99.90
22114;DHT22;11223;49.968;9.062;2022-07-21T09:56:34;21.10;99.90
22114;DHT22;11223;49.968;9.062;2022-07-21T09:59:00;21.50;99.90
22114;DHT22;11223;49.968;9.062;2022-07-21T10:01:28;21.80;99.90
22114;DHT22;11223;49.968;9.062;2022-07-21T10:03:54;22.00;99.90
22114;DHT22;11223;49.968;9.062;2022-07-21T10:06:24;22.10;99.90
22114;DHT22;11223;49.968;9.062;2022-07-21T10:08:50;22.00;99.90
22114;DHT22;11223;49.968;9.062;2022-07-21T10:11:16;21.90;99.90
22114;DHT22;11223;49.968;9.062;2022-07-21T10:13:43;21.70;99.90
22114;DHT22;11223;49.968;9.062;2022-07-21T10:16:10;21.60;99.90
22114;DHT22;11223;49.968;9.062;2022-07-21T10:19:02;21.50;99.90
22114;DHT22;11223;49.968;9.062;2022-07-21T10:24:18;21.50;99.90
22114;DHT22;11223;49.968;9.062;2022-07-21T10:27:06;21.70;99.90
22114;DHT22;11223;49.968;9.062;2022-07-21T10:32:17;22.00;99.90
22114;DHT22;11223;49.968;9.062;2022-07-21T10:34:44;22.10;99.90
22114;DHT22;11223;49.968;9.062;2022-07-21T10:37:10;22.20;99.90
22114;DHT22;11223;49.968;9.062;2022-07-21T10:39:37;22.30;99.90
22114;DHT22;11223;49.968;9.062;2022-07-21T10:42:14;22.30;99.90
22114;DHT22;11223;49.968;9.062;2022-07-21T10:44:42;22.50;99.90
22114;DHT22;11223;49.968;9.062;2022-07-21T10:47:15;22.60;99.90
22114;DHT22;11223;49.968;9.062;2022-07-21T10:55:14;22.80;99.90
22114;DHT22;11223;49.968;9.062;2022-07-21T10:57:47;23.30;99.90
22114;DHT22;11223;49.968;9.062;2022-07-21T11:00:25;23.80;99.90
22114;DHT22;11223;49.968;9.062;2022-07-21T11:03:01;24.30;99.90
22114;DHT22;11223;49.968;9.062;2022-07-21T11:05:33;24.60;99.90
22114;DHT22;11223;49.968;9.062;2022-07-21T11:10:37;24.80;99.90
22114;DHT22;11223;49.968;9.062;2022-07-21T11:13:03;24.90;99.90
22114;DHT22;11223;49.968;9.062;2022-07-21T11:15:55;24.80;99.90
22114;DHT22;11223;49.968;9.062;2022-07-21T11:18:24;24.80;99.90
22114;DHT22;11223;49.968;9.062;2022-07-21T11:23:45;24.40;99.90
22114;DHT22;11223;49.968;9.062;2022-07-21T11:26:12;24.30;99.90
22114;DHT22;11223;49.968;9.062;2022-07-21T11:28:39;24.50;99.90
22114;DHT22;11223;49.968;9.062;2022-07-21T11:31:20;24.60;99.90
22114;DHT22;11223;49.968;9.062;2022-07-21T11:33:47;24.90;99.90
22114;DHT22;11223;49.968;9.062;2022-07-21T11:36:28;25.20;99.90
22114;DHT22;11223;49.968;9.062;2022-07-21T11:39:06;25.20;99.90
22114;DHT22;11223;49.968;9.062;2022-07-21T11:41:33;25.30;99.90
22114;DHT22;11223;49.968;9.062;2022-07-21T11:43:59;25.50;99.90
22114;DHT22;11223;49.968;9.062;2022-07-21T11:46:25;25.50;99.90
22114;DHT22;11223;49.968;9.062;2022-07-21T11:49:04;25.50;99.90
22114;DHT22;11223;49.968;9.062;2022-07-21T11:51:30;25.50;99.90
22114;DHT22;11223;49.968;9.062;2022-07-21T11:53:56;25.80;99.90
22114;DHT22;11223;49.968;9.062;2022-07-21T11:56:21;26.10;99.90
22114;DHT22;11223;49.968;9.062;2022-07-21T11:58:48;26.10;99.90
22114;DHT22;11223;49.968;9.062;2022-07-21T12:01:14;26.30;99.90
22114;DHT22;11223;49.968;9.062;2022-07-21T12:03:48;26.40;99.90
22114;DHT22;11223;49.968;9.062;2022-07-21T12:06:14;26.40;99.90
22114;DHT22;11223;49.968;9.062;2022-07-21T12:08:42;26.70;99.90
22114;DHT22;11223;49.968;9.062;2022-07-21T12:11:09;26.80;99.90
22114;DHT22;11223;49.968;9.062;2022-07-21T12:13:56;26.80;99.90
22114;DHT22;11223;49.968;9.062;2022-07-21T12:16:22;26.40;99.90
22114;DHT22;11223;49.968;9.062;2022-07-21T12:18:48;26.40;99.90
22114;DHT22;11223;49.968;9.062;2022-07-21T12:21:14;26.40;99.90
22114;DHT22;11223;49.968;9.062;2022-07-21T12:23:40;26.60;99.90
22114;DHT22;11223;49.968;9.062;2022-07-21T12:26:19;26.70;99.90
22114;DHT22;11223;49.968;9.062;2022-07-21T12:28:46;26.90;99.90
22114;DHT22;11223;49.968;9.062;2022-07-21T12:31:17;26.90;99.90
22114;DHT22;11223;49.968;9.062;2022-07-21T12:33:47;27.00;99.90
22114;DHT22;11223;49.968;9.062;2022-07-21T12:36:13;27.00;99.90
22114;DHT22;11223;49.968;9.062;2022-07-21T12:38:44;26.90;99.90
22114;DHT22;11223;49.968;9.062;2022-07-21T12:41:17;26.90;99.90
22114;DHT22;11223;49.968;9.062;2022-07-21T12:43:54;27.10;99.90
22114;DHT22;11223;49.968;9.062;2022-07-21T12:46:20;27.20;99.90
22114;DHT22;11223;49.968;9.062;2022-07-21T12:48:46;27.30;99.90
22114;DHT22;11223;49.968;9.062;2022-07-21T12:53:50;27.60;99.90
22114;DHT22;11223;49.968;9.062;2022-07-21T12:56:21;27.40;99.90
22114;DHT22;11223;49.968;9.062;2022-07-21T12:58:48;27.40;99.90
22114;DHT22;11223;49.968;9.062;2022-07-21T13:01:16;27.30;99.90
22114;DHT22;11223;49.968;9.062;2022-07-21T13:03:42;27.30;99.90
22114;DHT22;11223;49.968;9.062;2022-07-21T13:06:09;27.40;99.90
22114;DHT22;11223;49.968;9.062;2022-07-21T13:08:36;27.60;99.90
22114;DHT22;11223;49.968;9.062;2022-07-21T13:11:03;27.90;99.90
22114;DHT22;11223;49.968;9.062;2022-07-21T13:13:30;28.00;99.90
22114;DHT22;11223;49.968;9.062;2022-07-21T13:15:56;27.70;99.90
22114;DHT22;11223;49.968;9.062;2022-07-21T13:18:21;27.30;99.90
22114;DHT22;11223;49.968;9.062;2022-07-21T13:20:49;26.80;99.90
22114;DHT22;11223;49.968;9.062;2022-07-21T13:23:15;26.30;99.90
22114;DHT22;11223;49.968;9.062;2022-07-21T13:25:41;25.90;99.90
22114;DHT22;11223;49.968;9.062;2022-07-21T13:28:06;25.50;99.90
22114;DHT22;11223;49.968;9.062;2022-07-21T13:30:32;25.20;99.90
22114;DHT22;11223;49.968;9.062;2022-07-21T13:32:58;25.00;99.90
22114;DHT22;11223;49.968;9.062;2022-07-21T13:35:24;24.70;99.90
22114;DHT22;11223;49.968;9.062;2022-07-21T13:37:50;24.50;99.90
22114;DHT22;11223;49.968;9.062;2022-07-21T13:40:16;24.40;99.90
22114;DHT22;11223;49.968;9.062;2022-07-21T13:42:41;24.20;99.90
22114;DHT22;11223;49.968;9.062;2022-07-21T13:45:07;24.00;99.90
22114;DHT22;11223;49.968;9.062;2022-07-21T13:47:36;24.00;99.90
22114;DHT22;11223;49.968;9.062;2022-07-21T13:50:02;24.00;99.90
22114;DHT22;11223;49.968;9.062;2022-07-21T13:52:28;24.20;99.90
22114;DHT22;11223;49.968;9.062;2022-07-21T13:54:54;25.20;99.90
22114;DHT22;11223;49.968;9.062;2022-07-21T13:57:20;26.80;99.90
22114;DHT22;11223;49.968;9.062;2022-07-21T13:59:45;28.30;99.90
22114;DHT22;11223;49.968;9.062;2022-07-21T14:02:11;29.50;99.90
22114;DHT22;11223;49.968;9.062;2022-07-21T14:04:37;30.20;99.90
22114;DHT22;11223;49.968;9.062;2022-07-21T14:07:03;30.40;99.90
22114;DHT22;11223;49.968;9.062;2022-07-21T14:09:28;30.40;99.90
22114;DHT22;11223;49.968;9.062;2022-07-21T14:11:55;30.30;97.00
22114;DHT22;11223;49.968;9.062;2022-07-21T14:14:23;30.00;99.80
22114;DHT22;11223;49.968;9.062;2022-07-21T14:16:51;29.80;99.90
22114;DHT22;11223;49.968;9.062;2022-07-21T14:19:18;29.80;99.90
22114;DHT22;11223;49.968;9.062;2022-07-21T14:21:44;29.70;99.70
22114;DHT22;11223;49.968;9.062;2022-07-21T14:24:10;29.60;93.30
22114;DHT22;11223;49.968;9.062;2022-07-21T14:27:14;29.50;99.60
22114;DHT22;11223;49.968;9.062;2022-07-21T14:29:40;29.10;99.90
22114;DHT22;11223;49.968;9.062;2022-07-21T14:32:06;28.80;99.70
22114;DHT22;11223;49.968;9.062;2022-07-21T14:34:31;28.50;99.90
22114;DHT22;11223;49.968;9.062;2022-07-21T14:36:57;28.20;99.90
22114;DHT22;11223;49.968;9.062;2022-07-21T14:39:23;27.80;99.90
22114;DHT22;11223;49.968;9.062;2022-07-21T14:41:49;27.50;99.90
22114;DHT22;11223;49.968;9.062;2022-07-21T14:44:15;27.10;99.90
22114;DHT22;11223;49.968;9.062;2022-07-21T14:46:41;26.80;99.90
22114;DHT22;11223;49.968;9.062;2022-07-21T14:49:06;26.60;99.90
22114;DHT22;11223;49.968;9.062;2022-07-21T14:51:38;26.40;99.90
22114;DHT22;11223;49.968;9.062;2022-07-21T14:54:04;26.10;99.90
22114;DHT22;11223;49.968;9.062;2022-07-21T14:56:32;25.90;99.90
22114;DHT22;11223;49.968;9.062;2022-07-21T14:59:00;25.70;99.90
22114;DHT22;11223;49.968;9.062;2022-07-21T15:01:26;26.40;99.90
22114;DHT22;11223;49.968;9.062;2022-07-21T15:03:52;27.70;99.90
22114;DHT22;11223;49.968;9.062;2022-07-21T15:06:18;27.90;99.90
22114;DHT22;11223;49.968;9.062;2022-07-21T15:08:43;27.60;99.90
22114;DHT22;11223;49.968;9.062;2022-07-21T15:11:09;27.10;99.90
22114;DHT22;11223;49.968;9.062;2022-07-21T15:13:36;26.80;99.90
22114;DHT22;11223;49.968;9.062;2022-07-21T15:16:01;26.50;99.90
22114;DHT22;11223;49.968;9.062;2022-07-21T15:18:27;26.20;99.90
22114;DHT22;11223;49.968;9.062;2022-07-21T15:20:52;25.90;99.90
22114;DHT22;11223;49.968;9.062;2022-07-21T15:23:18;25.80;99.90
22114;DHT22;11223;49.968;9.062;2022-07-21T15:25:44;25.70;99.90
22114;DHT22;11223;49.968;9.062;2022-07-21T15:28:10;25.60;99.90
22114;DHT22;11223;49.968;9.062;2022-07-21T15:30:35;25.60;99.90
22114;DHT22;11223;49.968;9.062;2022-07-21T15:33:01;25.60;99.90
22114;DHT22;11223;49.968;9.062;2022-07-21T15:35:27;25.60;99.90
22114;DHT22;11223;49.968;9.062;2022-07-21T15:37:52;25.70;99.90
22114;DHT22;11223;49.968;9.062;2022-07-21T15:40:18;25.70;99.90
22114;DHT22;11223;49.968;9.062;2022-07-21T15:42:44;25.70;99.90
22114;DHT22;11223;49.968;9.062;2022-07-21T15:45:10;25.60;99.90
22114;DHT22;11223;49.968;9.062;2022-07-21T15:47:36;25.40;99.90
22114;DHT22;11223;49.968;9.062;2022-07-21T15:50:02;25.40;99.90
22114;DHT22;11223;49.968;9.062;2022-07-21T15:52:28;25.40;99.90
22114;DHT22;11223;49.968;9.062;2022-07-21T15:54:54;25.40;99.90
22114;DHT22;11223;49.968;9.062;2022-07-21T15:57:20;25.40;99.90
22114;DHT22;11223;49.968;9.062;2022-07-21T15:59:46;25.40;99.90